Time;durP1;ratioP1;P1;durP2;ratioP2;P2;SDS_P1;SDS_P2;PMS_P1;PMS_P2;Temp;Humidity;BMP_temperature;BMP_pressure;BME280_temperature;BME280_humidity;BME280_pressure;Samples;Min_cycle;Max_cycle;Signal;HPM_P1;HPM_P2
2021/05/03 00:01:49;;;;;;;3.13;1.48;;;18.30;35.60;;;;;;5096070;28;20020;-64
2021/05/03 00:04:14;;;;;;;5.72;1.70;;;18.20;35.60;;;;;;5096006;28;20055;-64
2021/05/03 00:06:40;;;;;;;3.17;1.30;;;18.20;35.60;;;;;;5095800;28;20020;-64
2021/05/03 00:09:06;;;;;;;3.35;1.60;;;18.20;35.60;;;;;;5095354;28;20093;-64
2021/05/03 00:11:32;;;;;;;3.65;1.60;;;18.20;35.70;;;;;;5095326;28;20036;-64
2021/05/03 00:13:58;;;;;;;3.55;1.67;;;18.20;35.70;;;;;;5094556;28;20035;-64
2021/05/03 00:16:23;;;;;;;2.72;1.40;;;18.20;35.70;;;;;;5095711;28;20032;-64
2021/05/03 00:18:49;;;;;;;3.20;1.30;;;18.20;35.70;;;;;;5096256;28;20020;-64
2021/05/03 00:21:14;;;;;;;3.17;1.45;;;18.20;35.70;;;;;;5095755;28;20092;-64
2021/05/03 00:23:40;;;;;;;2.75;1.40;;;18.20;35.70;;;;;;5095406;28;20036;-64
2021/05/03 00:26:07;;;;;;;3.47;1.83;;;18.20;35.70;;;;;;5095640;28;20028;-64
2021/05/03 00:28:33;;;;;;;5.22;1.90;;;18.20;35.70;;;;;;5095511;28;20026;-64
2021/05/03 00:30:59;;;;;;;4.07;1.80;;;18.20;35.70;;;;;;5094902;28;20036;-64
2021/05/03 00:33:24;;;;;;;3.78;1.80;;;18.10;35.70;;;;;;5095188;28;20469;-64
2021/05/03 00:35:50;;;;;;;3.72;1.50;;;18.10;35.70;;;;;;5095389;28;20036;-64
2021/05/03 00:38:15;;;;;;;3.72;1.77;;;18.20;35.70;;;;;;5095042;28;20024;-64
2021/05/03 00:40:41;;;;;;;5.07;1.90;;;18.10;35.70;;;;;;5095101;28;20525;-63
2021/05/03 00:43:06;;;;;;;3.63;1.77;;;18.10;35.70;;;;;;5094999;28;20035;-63
2021/05/03 00:45:33;;;;;;;5.13;2.20;;;18.10;35.70;;;;;;5095076;28;20456;-63
2021/05/03 00:47:59;;;;;;;4.88;1.92;;;18.10;35.70;;;;;;5094596;28;20073;-63
2021/05/03 00:50:28;;;;;;;3.92;1.88;;;18.10;35.70;;;;;;5094323;28;20494;-63
2021/05/03 00:52:54;;;;;;;3.95;1.80;;;18.10;35.70;;;;;;5094334;28;20376;-63
2021/05/03 00:55:21;;;;;;;6.82;1.95;;;18.10;35.70;;;;;;5094596;28;20036;-63
2021/05/03 00:57:47;;;;;;;3.47;1.75;;;18.10;35.70;;;;;;5094535;28;20074;-63
2021/05/03 01:00:13;;;;;;;4.47;1.98;;;18.10;35.70;;;;;;5094332;28;20387;-63
2021/05/03 01:02:40;;;;;;;3.72;1.70;;;18.10;35.70;;;;;;5098175;28;20024;-65
2021/05/03 01:05:06;;;;;;;3.72;1.70;;;18.10;35.80;;;;;;5097888;28;20063;-64
2021/05/03 01:07:32;;;;;;;4.43;2.00;;;18.10;35.80;;;;;;5094194;28;20391;-64
2021/05/03 01:09:57;;;;;;;4.63;1.75;;;18.00;35.80;;;;;;5093936;28;20032;-64
2021/05/03 01:12:23;;;;;;;5.13;1.75;;;18.00;35.80;;;;;;5094226;28;20032;-64
2021/05/03 01:14:49;;;;;;;4.15;1.98;;;18.00;35.80;;;;;;5094454;28;20022;-64
2021/05/03 01:17:14;;;;;;;3.78;1.88;;;18.00;35.80;;;;;;5094039;28;20073;-64
2021/05/03 01:19:40;;;;;;;4.25;1.80;;;18.00;35.80;;;;;;5094028;28;20475;-64
2021/05/03 01:22:06;;;;;;;4.85;2.03;;;18.00;35.80;;;;;;5093700;28;20035;-64
2021/05/03 01:24:31;;;;;;;4.25;1.95;;;18.00;35.80;;;;;;5094198;28;20084;-64
2021/05/03 01:26:58;;;;;;;4.18;1.85;;;18.00;35.80;;;;;;5093844;28;20101;-64
2021/05/03 01:29:24;;;;;;;4.85;2.10;;;18.00;35.80;;;;;;5093658;28;20031;-64
2021/05/03 01:31:51;;;;;;;5.13;2.10;;;18.00;35.80;;;;;;5092327;28;20036;-64
2021/05/03 01:34:17;;;;;;;4.43;1.95;;;17.90;35.90;;;;;;5093889;28;20028;-64
2021/05/03 01:36:45;;;;;;;3.63;1.80;;;17.90;35.90;;;;;;5094015;28;20444;-64
2021/05/03 01:39:13;;;;;;;4.35;1.60;;;17.90;35.90;;;;;;5093795;28;20039;-64
2021/05/03 01:41:39;;;;;;;4.35;2.10;;;17.90;35.90;;;;;;5093950;28;20030;-64
2021/05/03 01:44:07;;;;;;;4.53;1.83;;;17.90;35.90;;;;;;5094186;28;20472;-64
2021/05/03 01:46:34;;;;;;;3.67;1.67;;;17.90;35.90;;;;;;5099061;28;20028;-64
2021/05/03 01:49:01;;;;;;;4.38;2.00;;;17.90;35.90;;;;;;5094274;28;20056;-64
2021/05/03 01:51:28;;;;;;;6.13;2.60;;;17.90;35.90;;;;;;5093713;28;20043;-64
2021/05/03 01:53:54;;;;;;;5.30;2.00;;;17.90;35.90;;;;;;5093509;28;20024;-64
2021/05/03 01:56:20;;;;;;;5.38;2.13;;;17.90;35.90;;;;;;5093618;28;20028;-64
2021/05/03 01:58:46;;;;;;;3.95;2.03;;;17.80;35.90;;;;;;5093727;28;20111;-64
2021/05/03 02:01:12;;;;;;;4.95;1.90;;;17.90;35.90;;;;;;5093740;28;20028;-64
2021/05/03 02:03:37;;;;;;;4.32;2.10;;;17.90;35.90;;;;;;5093382;28;20028;-64
2021/05/03 02:06:03;;;;;;;5.03;2.30;;;17.80;35.90;;;;;;5093941;28;20123;-64
2021/05/03 02:08:30;;;;;;;4.82;1.95;;;17.80;35.90;;;;;;5098625;28;20035;-64
2021/05/03 02:10:55;;;;;;;3.78;1.95;;;17.80;35.90;;;;;;5099431;28;20425;-64
2021/05/03 02:13:22;;;;;;;5.72;2.20;;;17.80;35.90;;;;;;5094091;28;20046;-64
2021/05/03 02:15:49;;;;;;;5.25;2.00;;;17.80;35.90;;;;;;5093207;28;20476;-64
2021/05/03 02:18:16;;;;;;;3.17;1.67;;;17.80;35.90;;;;;;5093312;28;20066;-64
2021/05/03 02:20:43;;;;;;;3.67;1.88;;;17.80;36.00;;;;;;5093189;28;20024;-64
2021/05/03 02:23:09;;;;;;;4.57;2.13;;;17.80;35.90;;;;;;5093366;28;20422;-64
2021/05/03 02:25:35;;;;;;;4.53;2.13;;;17.80;35.90;;;;;;5093360;28;20024;-64
2021/05/03 02:28:00;;;;;;;4.78;2.20;;;17.80;35.90;;;;;;5093274;28;20028;-64
2021/05/03 02:30:28;;;;;;;6.28;2.05;;;17.80;35.90;;;;;;5093288;28;20020;-64
2021/05/03 02:32:54;;;;;;;3.85;2.05;;;17.70;35.90;;;;;;5093300;28;20032;-64
2021/05/03 02:35:22;;;;;;;4.85;2.30;;;17.70;35.90;;;;;;5093342;28;20487;-64
2021/05/03 02:37:52;;;;;;;4.63;2.22;;;17.70;35.90;;;;;;5095271;28;20028;-64
2021/05/03 02:40:19;;;;;;;4.90;2.03;;;17.80;35.90;;;;;;5097175;28;20024;-64
2021/05/03 02:42:48;;;;;;;5.28;2.15;;;17.80;35.90;;;;;;5097187;28;20030;-64
2021/05/03 02:45:15;;;;;;;4.22;1.95;;;17.70;35.90;;;;;;5097028;28;20066;-64
2021/05/03 02:47:41;;;;;;;4.50;1.92;;;17.70;35.90;;;;;;5097006;28;20020;-64
2021/05/03 02:50:08;;;;;;;4.18;2.15;;;17.70;36.00;;;;;;5096954;28;20533;-64
2021/05/03 02:52:34;;;;;;;4.60;2.10;;;17.70;35.90;;;;;;5096772;28;20103;-64
2021/05/03 02:55:00;;;;;;;5.05;2.20;;;17.70;36.00;;;;;;5097006;28;20073;-64
2021/05/03 02:57:25;;;;;;;4.28;1.92;;;17.70;36.00;;;;;;5097378;28;20024;-64
2021/05/03 02:59:51;;;;;;;4.90;1.90;;;17.70;36.00;;;;;;5097273;28;20012;-64
2021/05/03 03:02:16;;;;;;;4.35;1.88;;;17.60;36.00;;;;;;5102575;28;20058;-64
2021/05/03 03:04:42;;;;;;;4.85;1.90;;;17.70;36.00;;;;;;5108483;28;20046;-64
2021/05/03 03:07:07;;;;;;;5.47;2.22;;;17.70;36.00;;;;;;5107836;28;20028;-64
2021/05/03 03:09:33;;;;;;;3.47;1.60;;;17.60;36.00;;;;;;5107773;28;20380;-64
2021/05/03 03:12:00;;;;;;;4.38;2.15;;;17.60;36.00;;;;;;5107594;28;20039;-65
2021/05/03 03:14:25;;;;;;;5.13;2.33;;;17.60;36.00;;;;;;5107741;28;20028;-64
2021/05/03 03:16:51;;;;;;;3.50;1.70;;;17.60;36.00;;;;;;5107865;28;20028;-66
2021/05/03 03:19:16;;;;;;;3.35;1.80;;;17.60;36.00;;;;;;5105112;28;20032;-64
2021/05/03 03:21:42;;;;;;;5.15;1.83;;;17.60;36.00;;;;;;5098057;28;20035;-64
2021/05/03 03:24:08;;;;;;;4.43;1.77;;;17.60;36.10;;;;;;5096172;28;20119;-64
2021/05/03 03:26:34;;;;;;;5.80;2.30;;;17.60;36.10;;;;;;5097005;28;20024;-64
2021/05/03 03:28:59;;;;;;;4.43;2.03;;;17.60;36.10;;;;;;5096851;28;20388;-65
2021/05/03 03:31:25;;;;;;;4.18;2.00;;;17.60;36.10;;;;;;5094751;28;20118;-64
2021/05/03 03:33:50;;;;;;;3.55;1.80;;;17.60;36.00;;;;;;5096577;28;20034;-64
2021/05/03 03:36:16;;;;;;;5.05;2.13;;;17.60;36.00;;;;;;5096431;28;20036;-64
2021/05/03 03:38:42;;;;;;;4.53;2.00;;;17.60;36.00;;;;;;5096181;28;20024;-64
2021/05/03 03:41:07;;;;;;;4.50;1.98;;;17.50;36.00;;;;;;5096031;28;20024;-64
2021/05/03 03:43:33;;;;;;;4.10;1.90;;;17.60;36.10;;;;;;5096244;28;20103;-64
2021/05/03 03:45:59;;;;;;;4.43;2.05;;;17.50;36.10;;;;;;5095998;28;20055;-64
2021/05/03 03:48:25;;;;;;;4.45;1.73;;;17.50;36.10;;;;;;5095655;28;20388;-64
2021/05/03 03:50:50;;;;;;;4.32;1.98;;;17.50;36.10;;;;;;5095343;28;20028;-64
2021/05/03 03:53:16;;;;;;;4.10;1.95;;;17.50;36.10;;;;;;5095827;28;20039;-64
2021/05/03 03:55:41;;;;;;;3.85;1.70;;;17.50;36.10;;;;;;5095757;28;20024;-64
2021/05/03 03:58:07;;;;;;;4.07;1.98;;;17.50;36.10;;;;;;5094693;28;20028;-64
2021/05/03 04:00:33;;;;;;;5.32;1.70;;;17.50;36.10;;;;;;5095640;28;20024;-64
2021/05/03 04:02:59;;;;;;;5.03;1.88;;;17.50;36.10;;;;;;5095733;28;20085;-64
2021/05/03 04:05:36;;;;;;;3.72;1.80;;;17.50;36.10;;;;;;5095649;28;20493;-64
2021/05/03 04:08:12;;;;;;;4.65;1.80;;;17.50;36.10;;;;;;5096145;28;20388;-64
2021/05/03 04:24:08;;;;;;;4.05;1.70;;;17.50;35.90;;;;;;5095107;28;20101;-64
2021/05/03 04:26:34;;;;;;;3.65;2.00;;;17.50;36.00;;;;;;5095062;28;20028;-64
2021/05/03 04:29:00;;;;;;;4.07;1.88;;;17.50;36.00;;;;;;5095016;28;20032;-64
2021/05/03 04:31:25;;;;;;;3.90;1.70;;;17.60;36.00;;;;;;5094780;28;20119;-64
2021/05/03 04:33:52;;;;;;;4.35;2.00;;;17.60;35.90;;;;;;5094816;28;20024;-64
2021/05/03 04:36:18;;;;;;;4.25;1.55;;;17.60;35.90;;;;;;5095379;28;20036;-64
2021/05/03 04:38:44;;;;;;;4.13;1.80;;;17.60;35.90;;;;;;5094783;28;20099;-64
2021/05/03 04:41:09;;;;;;;4.93;1.95;;;17.60;35.90;;;;;;5094868;28;20117;-64
2021/05/03 04:43:36;;;;;;;6.00;2.25;;;17.60;35.80;;;;;;5095031;28;20028;-64
2021/05/03 04:46:02;;;;;;;4.35;2.00;;;17.60;35.80;;;;;;5094649;28;20028;-64
2021/05/03 04:48:28;;;;;;;4.75;2.15;;;17.70;35.80;;;;;;5094665;28;20112;-64
2021/05/03 04:50:55;;;;;;;5.28;1.73;;;17.70;35.80;;;;;;5095414;28;20058;-64
2021/05/03 04:53:21;;;;;;;4.53;2.10;;;17.60;35.80;;;;;;5099029;28;20035;-64
2021/05/03 04:55:47;;;;;;;4.28;1.50;;;17.60;35.80;;;;;;5094817;28;20028;-64
2021/05/03 04:58:13;;;;;;;3.67;1.60;;;17.70;35.70;;;;;;5094478;28;20440;-64
2021/05/03 05:00:38;;;;;;;3.55;1.60;;;17.70;35.70;;;;;;5092949;28;20028;-64
2021/05/03 05:03:04;;;;;;;4.43;1.95;;;17.70;35.70;;;;;;5093223;28;20020;-64
2021/05/03 05:05:30;;;;;;;3.50;1.40;;;17.70;35.70;;;;;;5094662;28;20040;-64
2021/05/03 05:07:55;;;;;;;3.83;1.55;;;17.70;35.60;;;;;;5094389;28;20024;-64
2021/05/03 05:10:21;;;;;;;5.47;2.03;;;17.70;35.70;;;;;;5094081;28;20039;-64
2021/05/03 05:12:49;;;;;;;3.95;1.80;;;17.80;35.70;;;;;;5094105;28;20024;-64
2021/05/03 05:15:14;;;;;;;5.05;1.70;;;17.70;35.60;;;;;;5094425;28;20032;-64
2021/05/03 05:17:40;;;;;;;4.10;1.80;;;17.80;35.60;;;;;;5094012;28;20093;-64
2021/05/03 05:20:07;;;;;;;2.95;1.42;;;17.80;35.60;;;;;;5094303;28;20055;-64
2021/05/03 05:22:33;;;;;;;3.50;1.67;;;17.80;35.60;;;;;;5094206;28;20097;-64
2021/05/03 05:25:01;;;;;;;4.03;1.77;;;17.70;35.60;;;;;;5094019;28;20024;-64
2021/05/03 05:27:27;;;;;;;3.67;1.48;;;17.70;35.60;;;;;;5094502;28;20046;-64
2021/05/03 05:29:52;;;;;;;5.15;1.98;;;17.80;35.60;;;;;;5093909;28;20055;-64
2021/05/03 05:32:18;;;;;;;3.80;1.63;;;17.80;35.50;;;;;;5093588;28;20115;-64
2021/05/03 05:34:43;;;;;;;4.25;1.70;;;17.80;35.50;;;;;;5094150;28;20069;-64
2021/05/03 05:37:10;;;;;;;6.65;1.80;;;17.80;35.50;;;;;;5093983;28;20107;-64
2021/05/03 05:39:35;;;;;;;4.35;1.92;;;17.90;35.50;;;;;;5094182;28;20016;-64
2021/05/03 05:42:01;;;;;;;3.88;1.88;;;17.90;35.50;;;;;;5093722;28;20031;-64
2021/05/03 05:44:26;;;;;;;6.13;1.80;;;17.90;35.50;;;;;;5093974;28;20285;-64
2021/05/03 05:46:52;;;;;;;5.38;1.75;;;17.90;35.50;;;;;;5093609;28;20388;-64
2021/05/03 05:49:17;;;;;;;4.03;2.00;;;17.90;35.40;;;;;;5093495;28;20099;-64
2021/05/03 05:51:43;;;;;;;4.30;1.80;;;17.90;35.40;;;;;;5093554;28;20028;-64
2021/05/03 05:54:09;;;;;;;4.32;1.70;;;17.90;35.40;;;;;;5093525;28;20081;-64
2021/05/03 05:56:34;;;;;;;4.93;1.92;;;18.00;35.40;;;;;;5093934;28;20031;-64
2021/05/03 05:59:00;;;;;;;3.88;1.80;;;18.00;35.40;;;;;;5093473;28;20467;-64
2021/05/03 06:01:27;;;;;;;4.25;1.98;;;18.00;35.40;;;;;;5093445;28;20119;-64
2021/05/03 06:03:53;;;;;;;4.65;1.80;;;18.00;35.40;;;;;;5092430;28;20052;-64
2021/05/03 06:06:19;;;;;;;4.25;1.98;;;18.00;35.40;;;;;;5093753;28;20058;-64
2021/05/03 06:08:44;;;;;;;3.22;1.50;;;18.00;35.40;;;;;;5093658;28;20042;-64
2021/05/03 06:11:10;;;;;;;4.47;1.58;;;18.00;35.40;;;;;;5093440;28;20119;-64
2021/05/03 06:13:35;;;;;;;4.05;1.70;;;18.00;35.40;;;;;;5096779;28;20024;-64
2021/05/03 06:16:01;;;;;;;3.42;1.55;;;18.00;35.40;;;;;;5096959;28;20031;-64
2021/05/03 06:18:27;;;;;;;5.43;1.73;;;18.00;35.40;;;;;;5094916;28;20641;-63
2021/05/03 06:20:53;;;;;;;4.05;1.67;;;18.00;35.40;;;;;;5086866;28;20037;-65
2021/05/03 06:23:18;;;;;;;4.10;1.60;;;18.00;35.40;;;;;;5077698;28;20051;-65
2021/05/03 06:25:44;;;;;;;3.78;1.60;;;18.10;35.30;;;;;;5081831;28;20075;-64
2021/05/03 06:28:11;;;;;;;3.97;1.67;;;18.10;35.30;;;;;;5087227;28;20392;-64
2021/05/03 06:30:36;;;;;;;2.97;1.45;;;18.10;35.30;;;;;;5083699;28;20047;-65
2021/05/03 06:33:02;;;;;;;4.53;1.70;;;18.10;35.40;;;;;;5090937;28;20024;-65
2021/05/03 06:35:28;;;;;;;5.60;1.60;;;18.20;35.30;;;;;;5079649;28;20090;-65
2021/05/03 06:37:54;;;;;;;3.53;1.63;;;18.20;35.30;;;;;;5092020;28;20530;-66
2021/05/03 06:40:20;;;;;;;3.95;1.60;;;18.20;35.40;;;;;;5094189;28;20032;-64
2021/05/03 06:42:48;;;;;;;4.13;1.50;;;18.20;35.40;;;;;;5093314;28;20036;-66
2021/05/03 06:45:15;;;;;;;3.20;1.35;;;18.20;35.40;;;;;;5103314;28;20036;-64
2021/05/03 06:47:41;;;;;;;4.25;1.70;;;18.20;35.40;;;;;;5094732;28;20445;-65
2021/05/03 06:50:09;;;;;;;4.35;1.80;;;18.20;35.40;;;;;;5098792;28;20042;-64
2021/05/03 06:52:35;;;;;;;5.88;1.92;;;18.20;35.30;;;;;;5093243;28;20040;-64
2021/05/03 06:55:00;;;;;;;3.40;1.50;;;18.20;35.40;;;;;;5090328;28;20050;-64
2021/05/03 06:57:26;;;;;;;4.65;1.85;;;18.30;35.30;;;;;;5094049;28;20032;-64
2021/05/03 06:59:52;;;;;;;3.70;1.55;;;18.30;35.30;;;;;;5086701;28;20040;-65
2021/05/03 07:02:18;;;;;;;5.32;1.60;;;18.30;35.30;;;;;;5080272;28;20035;-64
2021/05/03 07:04:43;;;;;;;3.28;1.40;;;18.30;35.30;;;;;;5085580;28;20019;-64
2021/05/03 07:07:09;;;;;;;2.47;1.20;;;18.30;35.40;;;;;;5092780;28;20066;-64
2021/05/03 07:09:34;;;;;;;3.42;1.63;;;18.30;35.40;;;;;;5080767;28;20036;-65
2021/05/03 07:12:08;;;;;;;3.35;1.52;;;18.30;35.40;;;;;;5086420;28;20038;-65
2021/05/03 07:14:34;;;;;;;4.25;1.63;;;18.30;35.40;;;;;;5090610;28;20383;-64
2021/05/03 07:17:02;;;;;;;4.40;1.50;;;18.30;35.40;;;;;;5086007;28;20028;-64
2021/05/03 07:19:27;;;;;;;2.35;1.00;;;18.40;35.30;;;;;;5099743;28;20456;-65
2021/05/03 07:21:53;;;;;;;3.60;1.40;;;18.40;35.30;;;;;;5095288;28;20027;-65
2021/05/03 07:24:18;;;;;;;3.17;1.20;;;18.40;35.30;;;;;;5077042;28;20048;-67
2021/05/03 07:26:44;;;;;;;3.80;1.65;;;18.40;35.30;;;;;;5075849;28;20016;-65
2021/05/03 07:29:09;;;;;;;3.95;1.50;;;18.40;35.30;;;;;;5091342;28;20455;-66
2021/05/03 07:31:35;;;;;;;4.47;1.88;;;18.50;35.30;;;;;;5093590;28;20062;-65
2021/05/03 07:34:01;;;;;;;3.13;1.35;;;18.50;35.30;;;;;;5085702;28;20039;-63
2021/05/03 07:36:26;;;;;;;3.28;1.23;;;18.50;35.30;;;;;;5075536;28;20063;-62
2021/05/03 07:38:52;;;;;;;3.90;1.70;;;18.50;35.30;;;;;;5076193;28;20028;-65
2021/05/03 07:41:18;;;;;;;4.15;1.50;;;18.50;35.20;;;;;;5074497;28;20032;-62
2021/05/03 07:43:44;;;;;;;2.67;1.27;;;18.60;35.20;;;;;;5089162;28;20032;-65
2021/05/03 07:46:09;;;;;;;4.55;1.45;;;18.60;35.30;;;;;;5095274;28;20106;-67
2021/05/03 07:48:35;;;;;;;3.65;1.30;;;18.60;35.20;;;;;;5082463;28;20028;-65
2021/05/03 07:51:00;;;;;;;3.92;1.50;;;18.60;35.20;;;;;;5094101;28;20434;-66
2021/05/03 07:53:26;;;;;;;3.15;1.23;;;18.70;35.20;;;;;;5094444;28;20032;-63
2021/05/03 07:55:52;;;;;;;5.57;1.52;;;18.70;35.20;;;;;;5087476;28;20468;-63
2021/05/03 08:05:35;;;;;;;2.83;1.20;;;18.70;35.20;;;;;;5087621;28;20031;-66
2021/05/03 08:08:01;;;;;;;5.30;1.83;;;18.70;35.30;;;;;;5094616;28;20067;-66
2021/05/03 08:10:28;;;;;;;3.45;1.25;;;18.70;35.30;;;;;;5094050;28;20509;-65
2021/05/03 08:12:53;;;;;;;4.35;1.73;;;18.70;35.20;;;;;;5096957;28;20046;-66
2021/05/03 08:15:22;;;;;;;2.90;1.38;;;18.80;35.30;;;;;;5085789;28;20058;-66
2021/05/03 08:17:48;;;;;;;4.18;1.45;;;18.80;35.30;;;;;;5081990;28;20027;-66
2021/05/03 08:20:17;;;;;;;3.78;1.25;;;18.80;35.30;;;;;;5090841;28;20025;-66
2021/05/03 08:22:43;;;;;;;4.13;1.58;;;18.80;35.30;;;;;;5083308;28;20090;-64
2021/05/03 08:25:09;;;;;;;2.97;1.08;;;18.80;35.30;;;;;;5083316;28;20483;-64
2021/05/03 08:27:35;;;;;;;3.33;1.27;;;18.80;35.30;;;;;;5087949;28;20028;-65
2021/05/03 08:30:02;;;;;;;3.45;1.33;;;18.80;35.30;;;;;;5090553;28;20040;-64
2021/05/03 08:32:28;;;;;;;4.50;1.13;;;18.80;35.30;;;;;;5089018;28;20039;-64
2021/05/03 08:34:53;;;;;;;3.47;1.42;;;18.80;35.30;;;;;;5084825;28;20099;-63
2021/05/03 08:37:19;;;;;;;4.18;1.52;;;18.90;35.40;;;;;;5109574;28;20109;-65
2021/05/03 08:39:44;;;;;;;3.95;1.30;;;18.90;35.30;;;;;;5089319;28;20037;-63
2021/05/03 08:42:13;;;;;;;2.13;1.05;;;19.00;35.20;;;;;;5091210;28;20420;-66
2021/05/03 08:44:39;;;;;;;3.22;1.30;;;19.10;35.10;;;;;;5072981;28;20056;-63
2021/05/03 08:47:04;;;;;;;3.50;1.30;;;19.20;35.10;;;;;;5082138;28;20059;-63
2021/05/03 08:56:58;;;;;;;2.63;1.35;;;19.40;34.80;;;;;;5081777;28;20020;-64
2021/05/03 08:59:24;;;;;;;2.20;0.95;;;19.50;34.80;;;;;;5105050;28;20077;-64
2021/05/03 09:01:52;;;;;;;3.78;1.40;;;19.60;34.70;;;;;;5084174;28;20020;-63
2021/05/03 09:04:18;;;;;;;3.58;1.30;;;19.70;34.70;;;;;;5081074;28;20028;-65
2021/05/03 09:07:13;;;;;;;3.05;1.40;;;19.70;34.70;;;;;;5091945;28;20044;-67
2021/05/03 09:09:40;;;;;;;3.03;1.10;;;19.70;34.70;;;;;;5085251;28;20032;-68
2021/05/03 09:12:13;;;;;;;3.30;1.33;;;19.80;34.70;;;;;;5078583;28;20043;-67
2021/05/03 09:14:51;;;;;;;2.58;1.13;;;19.90;34.70;;;;;;5097342;28;20068;-67
2021/05/03 09:17:31;;;;;;;3.60;1.40;;;19.90;34.70;;;;;;5097723;28;20063;-65
2021/05/03 09:20:20;;;;;;;4.95;1.45;;;20.00;34.60;;;;;;5094693;28;20040;-66
2021/05/03 09:25:31;;;;;;;2.92;1.10;;;20.10;34.60;;;;;;5076177;28;20131;-65
2021/05/03 09:28:12;;;;;;;3.40;1.15;;;20.10;34.50;;;;;;5082669;28;20024;-65
2021/05/03 09:30:39;;;;;;;2.92;1.13;;;20.20;34.50;;;;;;5091769;28;20123;-65
2021/05/03 09:33:12;;;;;;;5.90;1.77;;;20.30;34.40;;;;;;5082597;28;20024;-65
2021/05/03 09:35:48;;;;;;;2.72;1.13;;;20.40;34.40;;;;;;5071587;28;20504;-66
2021/05/03 09:38:36;;;;;;;1.80;1.00;;;20.40;34.40;;;;;;5081028;28;20035;-67
2021/05/03 09:41:07;;;;;;;3.80;1.40;;;20.50;34.20;;;;;;5083554;28;20028;-66
2021/05/03 09:43:33;;;;;;;4.00;1.20;;;20.60;34.10;;;;;;5085937;28;20373;-67
2021/05/03 09:45:59;;;;;;;2.42;1.20;;;20.70;34.10;;;;;;5070356;28;20035;-65
2021/05/03 09:48:25;;;;;;;3.60;1.35;;;20.70;34.10;;;;;;5080895;28;20024;-63
2021/05/03 09:50:51;;;;;;;3.03;1.10;;;20.70;34.10;;;;;;5089775;28;20028;-64
2021/05/03 09:53:16;;;;;;;4.60;1.20;;;20.70;34.10;;;;;;5091768;28;20040;-63
2021/05/03 09:55:53;;;;;;;3.33;1.30;;;20.80;34.10;;;;;;5088394;28;20020;-65
2021/05/03 09:58:23;;;;;;;5.80;1.20;;;20.90;34.00;;;;;;5074768;28;20028;-64
2021/05/03 10:00:52;;;;;;;4.10;1.10;;;20.90;34.00;;;;;;5074689;28;20483;-65
2021/05/03 10:03:45;;;;;;;3.58;1.40;;;20.90;34.00;;;;;;5086717;28;20024;-64
2021/05/03 10:06:13;;;;;;;5.00;1.35;;;21.00;34.00;;;;;;5096430;28;20115;-65
2021/05/03 10:08:41;;;;;;;3.13;1.23;;;21.10;33.90;;;;;;5070724;28;20020;-65
2021/05/03 10:11:09;;;;;;;1.77;0.98;;;21.10;33.80;;;;;;5074777;28;20071;-64
2021/05/03 10:13:38;;;;;;;2.92;1.20;;;21.10;33.70;;;;;;5061113;28;20025;-64
2021/05/03 10:16:04;;;;;;;4.55;1.17;;;21.20;33.70;;;;;;5084848;28;20028;-65
2021/05/03 10:18:31;;;;;;;3.47;1.20;;;21.30;33.60;;;;;;5090070;28;20039;-64
2021/05/03 10:20:57;;;;;;;2.65;1.30;;;21.30;33.60;;;;;;5084913;28;20070;-64
2021/05/03 10:23:25;;;;;;;3.15;1.00;;;21.30;33.60;;;;;;5070650;28;20131;-64
2021/05/03 10:26:00;;;;;;;2.88;1.10;;;21.40;33.50;;;;;;5074511;28;20020;-62
2021/05/03 10:28:27;;;;;;;4.05;0.85;;;21.50;33.40;;;;;;5071008;28;20495;-64
2021/05/03 10:30:58;;;;;;;3.33;1.10;;;21.50;33.40;;;;;;5071783;28;20060;-64
2021/05/03 10:33:38;;;;;;;2.40;0.98;;;21.50;33.40;;;;;;5071466;28;20078;-66
2021/05/03 10:36:06;;;;;;;2.70;1.00;;;21.60;33.40;;;;;;5073204;28;20035;-65
2021/05/03 10:38:34;;;;;;;3.45;1.17;;;21.60;33.30;;;;;;5085544;28;20036;-65
2021/05/03 10:41:01;;;;;;;2.45;0.95;;;21.60;33.30;;;;;;5085577;28;20028;-63
2021/05/03 10:43:40;;;;;;;2.72;1.00;;;21.70;33.30;;;;;;5084631;28;20488;-63
2021/05/03 10:49:06;;;;;;;2.72;0.80;;;21.70;33.30;;;;;;5078516;28;20055;-64
2021/05/03 10:52:01;;;;;;;2.38;0.70;;;21.90;33.20;;;;;;5071491;28;20033;-65
2021/05/03 10:54:49;;;;;;;3.47;1.25;;;21.90;33.10;;;;;;5073273;28;20504;-64
2021/05/03 10:57:15;;;;;;;3.72;0.90;;;21.90;33.10;;;;;;5074462;28;20028;-63
2021/05/03 10:59:43;;;;;;;2.00;0.95;;;22.00;33.10;;;;;;5094471;28;20024;-64
2021/05/03 11:02:11;;;;;;;3.92;1.15;;;22.00;33.10;;;;;;5078040;28;20671;-63
2021/05/03 11:04:39;;;;;;;2.20;0.90;;;22.00;33.10;;;;;;5075529;28;20496;-66
2021/05/03 11:07:10;;;;;;;3.53;0.95;;;22.00;33.10;;;;;;5074732;28;20017;-65
2021/05/03 11:09:41;;;;;;;3.38;0.98;;;22.00;33.10;;;;;;5074401;28;20052;-65
2021/05/03 11:12:09;;;;;;;1.73;0.85;;;22.00;33.20;;;;;;5091283;28;20561;-64
2021/05/03 11:14:37;;;;;;;3.50;0.98;;;22.00;33.10;;;;;;5084000;28;20063;-66
2021/05/03 11:17:23;;;;;;;3.75;1.02;;;22.10;33.00;;;;;;5076133;28;20092;-65
2021/05/03 11:22:51;;;;;;;1.88;0.90;;;22.20;33.00;;;;;;5089119;28;20542;-65
2021/05/03 11:25:22;;;;;;;;;;;22.20;32.90;;;;;;5093261;28;20063;-65
2021/05/03 11:27:58;;;;;;;3.60;0.88;;;22.20;32.90;;;;;;5096777;28;19907;-64
2021/05/03 11:30:39;;;;;;;2.22;0.80;;;22.20;33.00;;;;;;5112136;28;20036;-62
2021/05/03 11:35:42;;;;;;;2.70;0.90;;;22.20;33.00;;;;;;5080814;28;20107;-64
2021/05/03 11:38:31;;;;;;;2.72;0.80;;;22.10;33.10;;;;;;5077342;28;20126;-63
2021/05/03 11:41:24;;;;;;;2.85;1.10;;;22.20;33.00;;;;;;5076507;28;20100;-65
2021/05/03 11:46:33;;;;;;;4.47;1.20;;;22.20;33.10;;;;;;5093251;28;20111;-65
2021/05/03 11:49:13;;;;;;;2.78;1.00;;;22.20;33.00;;;;;;5094189;28;20024;-66
2021/05/03 11:51:50;;;;;;;4.47;1.20;;;22.20;33.10;;;;;;5090638;28;20039;-65
2021/05/03 11:54:25;;;;;;;3.38;1.10;;;22.20;33.10;;;;;;5088628;28;20024;-65
2021/05/03 11:56:55;;;;;;;2.88;1.10;;;22.20;33.00;;;;;;5085996;28;20083;-66
2021/05/03 11:59:21;;;;;;;7.05;1.42;;;22.30;33.00;;;;;;5090108;28;21707;-65
2021/05/03 12:01:57;;;;;;;2.65;0.85;;;22.10;32.60;;;;;;5093807;28;20020;-66
2021/05/03 12:04:58;;;;;;;3.90;1.15;;;22.00;32.70;;;;;;5091805;28;20118;-66
2021/05/03 12:07:27;;;;;;;4.22;1.35;;;21.90;32.70;;;;;;5030119;28;20075;-65
2021/05/03 12:10:03;;;;;;;5.13;1.38;;;21.90;32.10;;;;;;5072493;28;20048;-66
2021/05/03 12:12:39;;;;;;;3.80;1.20;;;21.90;31.90;;;;;;5085412;28;20376;-65
2021/05/03 12:15:07;;;;;;;2.35;0.95;;;22.00;31.80;;;;;;5083384;28;20036;-67
2021/05/03 12:17:35;;;;;;;2.92;0.82;;;22.00;32.40;;;;;;5084156;28;20052;-66
2021/05/03 12:20:09;;;;;;;4.13;0.88;;;22.00;32.60;;;;;;5082837;28;20079;-67
2021/05/03 12:22:37;;;;;;;2.40;1.30;;;21.90;32.30;;;;;;5083462;28;20044;-69
2021/05/03 12:25:09;;;;;;;4.40;1.13;;;21.80;31.70;;;;;;5087276;28;20027;-69
2021/05/03 12:27:35;;;;;;;4.20;1.25;;;22.00;31.80;;;;;;5085673;28;20074;-66
2021/05/03 12:30:07;;;;;;;3.58;1.27;;;21.80;31.10;;;;;;5081705;28;20310;-65
2021/05/03 12:32:38;;;;;;;3.40;1.00;;;21.80;31.20;;;;;;5093758;28;20032;-66
2021/05/03 12:35:11;;;;;;;2.75;1.05;;;21.90;31.50;;;;;;5074846;28;20037;-64
2021/05/03 12:37:37;;;;;;;4.90;1.73;;;22.00;32.00;;;;;;5092399;28;20148;-63
2021/05/03 12:40:18;;;;;;;4.00;1.00;;;22.00;31.90;;;;;;5073660;28;20064;-66
2021/05/03 12:42:46;;;;;;;2.03;0.90;;;22.10;31.70;;;;;;5087130;28;20112;-65
2021/05/03 12:54:23;;;;;;;3.45;1.00;;;22.20;31.60;;;;;;5090277;28;20502;-66
2021/05/03 12:57:18;;;;;;;2.80;1.00;;;22.30;31.50;;;;;;5092590;28;20814;-67
2021/05/03 13:07:42;;;;;;;1.88;0.70;;;22.50;31.50;;;;;;5083384;28;20030;-66
2021/05/03 13:29:37;;;;;;;2.67;0.90;;;22.80;31.50;;;;;;5077066;28;20078;-64
2021/05/03 13:32:03;;;;;;;3.00;0.88;;;22.80;31.50;;;;;;5089395;28;20111;-67
2021/05/03 13:34:29;;;;;;;4.57;0.82;;;22.70;31.70;;;;;;5080729;28;20107;-65
2021/05/03 13:36:55;;;;;;;2.05;0.80;;;22.70;31.60;;;;;;5112924;28;20425;-65
2021/05/03 13:39:20;;;;;;;2.72;0.85;;;22.80;31.60;;;;;;5112126;28;20034;-65
2021/05/03 13:41:47;;;;;;;1.73;0.65;;;22.70;31.80;;;;;;5101415;28;20499;-67
2021/05/03 13:44:16;;;;;;;3.00;0.90;;;22.70;31.80;;;;;;5091744;28;20035;-63
2021/05/03 13:46:42;;;;;;;2.33;0.80;;;22.70;31.80;;;;;;5085994;28;20081;-66
2021/05/03 13:49:08;;;;;;;2.35;0.65;;;22.70;31.70;;;;;;5089157;28;20032;-67
2021/05/03 13:51:34;;;;;;;3.72;0.82;;;22.80;31.70;;;;;;5089516;28;20040;-65
2021/05/03 13:54:01;;;;;;;3.65;1.00;;;22.80;31.60;;;;;;5091105;28;20030;-67
2021/05/03 13:56:27;;;;;;;1.90;0.75;;;22.80;31.60;;;;;;5076660;28;20036;-67
2021/05/03 13:58:53;;;;;;;4.65;1.40;;;22.80;31.70;;;;;;5079195;28;20031;-66
2021/05/03 14:01:18;;;;;;;1.35;0.70;;;22.70;31.80;;;;;;5087294;28;20032;-68
2021/05/03 14:03:44;;;;;;;1.98;0.80;;;22.70;31.80;;;;;;5079774;28;20024;-66
2021/05/03 14:06:11;;;;;;;3.58;0.68;;;22.70;31.80;;;;;;5086541;28;20492;-67
2021/05/03 14:08:37;;;;;;;1.92;0.70;;;22.70;31.80;;;;;;5093142;28;20024;-64
2021/05/03 14:11:05;;;;;;;1.80;0.60;;;22.80;31.80;;;;;;5099351;28;20062;-64